createdAt,value
2022-12-25T00:00:53.378Z,22.10
2022-12-25T00:01:53.271Z,22.10
2022-12-25T00:02:53.317Z,22.11
2022-12-25T00:03:53.511Z,22.10
2022-12-25T00:04:53.234Z,22.10
2022-12-25T00:05:53.223Z,22.10
2022-12-25T00:06:53.218Z,22.09
2022-12-25T00:07:53.200Z,22.09
2022-12-25T00:08:53.179Z,22.10
2022-12-25T00:09:53.177Z,22.10
2022-12-25T00:10:53.166Z,22.10
2022-12-25T00:11:53.153Z,22.10
2022-12-25T00:12:53.147Z,22.10
2022-12-25T00:13:53.131Z,22.09
2022-12-25T00:14:53.145Z,22.09
2022-12-25T00:15:53.130Z,22.09
2022-12-25T00:16:53.082Z,22.09
2022-12-25T00:17:53.086Z,22.09
2022-12-25T00:18:53.084Z,22.10
2022-12-25T00:19:53.054Z,22.10
2022-12-25T00:20:53.050Z,22.08
2022-12-25T00:21:53.012Z,22.09
2022-12-25T00:22:53.565Z,22.09
2022-12-25T00:23:53.028Z,22.09
2022-12-25T00:24:52.994Z,22.09
2022-12-25T00:25:52.984Z,22.08
2022-12-25T00:26:52.975Z,22.09
2022-12-25T00:27:52.963Z,22.09
2022-12-25T00:28:52.953Z,22.09
2022-12-25T00:29:52.958Z,22.09
2022-12-25T00:30:52.937Z,22.09
2022-12-25T00:31:52.989Z,22.09
2022-12-25T00:32:52.917Z,22.08
2022-12-25T00:33:52.901Z,22.09
2022-12-25T00:34:52.893Z,22.09
2022-12-25T00:35:52.863Z,22.09
2022-12-25T00:36:52.846Z,22.08
2022-12-25T00:37:52.829Z,22.09
2022-12-25T00:38:52.864Z,22.09
2022-12-25T00:39:52.813Z,22.09
2022-12-25T00:40:52.800Z,22.09
2022-12-25T00:41:52.776Z,22.09
2022-12-25T00:42:52.771Z,22.10
2022-12-25T00:43:52.750Z,22.09
2022-12-25T00:44:52.741Z,22.09
2022-12-25T00:45:52.802Z,22.08
2022-12-25T00:46:52.792Z,22.08
2022-12-25T00:47:52.708Z,22.09
2022-12-25T00:48:52.756Z,22.09
2022-12-25T00:49:52.717Z,22.09
2022-12-25T00:50:52.678Z,22.08
2022-12-25T00:51:52.678Z,22.08
2022-12-25T00:52:52.680Z,22.09
2022-12-25T00:53:52.662Z,22.08
2022-12-25T00:54:52.678Z,22.09
2022-12-25T01:35:52.442Z,22.07
2022-12-25T02:28:52.141Z,22.05
2022-12-25T02:29:52.137Z,22.06
2022-12-25T02:30:52.136Z,22.05
2022-12-25T02:31:52.177Z,22.05
2022-12-25T02:32:52.133Z,22.05
2022-12-25T02:33:52.118Z,22.05
2022-12-25T02:34:52.122Z,22.05
2022-12-25T02:35:52.114Z,22.05
2022-12-25T02:36:52.108Z,22.05
2022-12-25T02:37:52.111Z,22.05
2022-12-25T02:38:52.085Z,22.04
2022-12-25T02:39:52.078Z,22.05
2022-12-25T02:40:52.071Z,22.05
2022-12-25T02:41:52.073Z,22.04
2022-12-25T02:42:52.051Z,22.05
2022-12-25T02:43:52.047Z,22.05
2022-12-25T02:44:52.043Z,22.05
2022-12-25T02:45:52.111Z,22.04
2022-12-25T02:46:52.056Z,22.03
2022-12-25T02:47:52.075Z,22.04
2022-12-25T02:48:52.036Z,22.04
2022-12-25T02:49:52.046Z,22.04
2022-12-25T02:50:52.037Z,22.04
2022-12-25T02:51:52.036Z,22.04
2022-12-25T02:52:52.030Z,22.04
2022-12-25T02:53:52.038Z,22.04
2022-12-25T02:54:52.040Z,22.04
2022-12-25T02:55:52.035Z,22.04
2022-12-25T02:56:52.034Z,22.05
2022-12-25T02:57:52.017Z,22.04
2022-12-25T02:58:52.016Z,22.05
2022-12-25T02:59:52.026Z,22.05
2022-12-25T03:00:52.029Z,22.05
2022-12-25T03:01:52.131Z,22.04
2022-12-25T03:02:52.053Z,22.04
2022-12-25T03:03:52.004Z,22.04
2022-12-25T03:04:51.991Z,22.04
2022-12-25T03:05:51.976Z,22.05
2022-12-25T03:06:51.962Z,22.05
2022-12-25T03:07:51.968Z,22.03
2022-12-25T03:08:51.961Z,22.05
2022-12-25T03:09:51.952Z,22.04
2022-12-25T03:10:51.939Z,22.05
2022-12-25T03:11:51.935Z,22.04
2022-12-25T03:12:51.933Z,22.05
2022-12-25T03:13:51.924Z,22.05
2022-12-25T03:14:51.945Z,22.05
2022-12-25T03:15:51.934Z,22.04
2022-12-25T03:16:52.018Z,22.03
2022-12-25T03:17:51.938Z,22.04
2022-12-25T03:18:51.939Z,22.04
2022-12-25T03:19:51.918Z,22.04
2022-12-25T03:20:51.918Z,22.04
2022-12-25T03:21:51.916Z,22.04
2022-12-25T03:22:51.936Z,22.04
2022-12-25T03:23:51.908Z,22.05
2022-12-25T03:24:51.911Z,22.04
2022-12-25T03:25:51.904Z,22.04
2022-12-25T03:26:51.890Z,22.05
2022-12-25T03:27:51.885Z,22.05
2022-12-25T03:28:51.877Z,22.04
2022-12-25T03:29:51.877Z,22.04
2022-12-25T03:30:51.903Z,22.05
2022-12-25T03:31:51.886Z,22.05
2022-12-25T03:32:51.858Z,22.04
2022-12-25T03:33:51.852Z,22.05
2022-12-25T03:34:51.838Z,22.04
2022-12-25T03:35:51.867Z,22.03
2022-12-25T03:36:51.845Z,22.04
2022-12-25T03:37:51.865Z,22.04
2022-12-25T04:51:51.239Z,22.00
2022-12-25T04:52:51.231Z,22.01
2022-12-25T04:53:51.250Z,22.01
2022-12-25T04:54:51.227Z,22.00
2022-12-25T04:55:51.256Z,22.00
2022-12-25T04:56:51.238Z,22.01
2022-12-25T04:57:51.222Z,22.00
2022-12-25T04:58:51.204Z,22.01
2022-12-25T04:59:51.213Z,22.01
2022-12-25T05:00:51.260Z,22.01
2022-12-25T05:01:51.292Z,22.00
2022-12-25T05:02:51.456Z,22.00
2022-12-25T05:03:51.293Z,22.01
2022-12-25T05:04:51.187Z,22.01
2022-12-25T05:05:51.164Z,22.00
2022-12-25T05:06:51.133Z,22.00
2022-12-25T05:07:51.117Z,22.00
2022-12-25T05:08:51.107Z,22.01
2022-12-25T05:09:51.097Z,22.01
2022-12-25T05:10:51.075Z,22.01
2022-12-25T05:11:51.074Z,22.00
2022-12-25T05:12:51.085Z,22.01
2022-12-25T05:13:51.051Z,22.00
2022-12-25T05:14:51.050Z,22.01
2022-12-25T05:15:51.070Z,22.01
2022-12-25T05:16:51.019Z,22.01
2022-12-25T05:17:51.033Z,22.01
2022-12-25T05:18:51.103Z,22.01
2022-12-25T05:19:50.998Z,22.01
2022-12-25T05:20:50.998Z,22.01
2022-12-25T05:21:51.069Z,22.01
2022-12-25T05:22:50.982Z,22.02
2022-12-25T05:23:50.978Z,22.02
2022-12-25T05:24:50.979Z,22.02
2022-12-25T05:25:50.976Z,22.01
2022-12-25T05:26:50.975Z,22.02
2022-12-25T05:27:53.995Z,22.02
2022-12-25T05:28:50.965Z,22.01
2022-12-25T05:29:50.955Z,22.01
2022-12-25T05:30:50.942Z,22.01
2022-12-25T05:31:51.006Z,22.01
2022-12-25T05:32:50.922Z,22.01
2022-12-25T05:33:50.911Z,22.01
2022-12-25T05:34:50.889Z,22.00
2022-12-25T05:35:50.896Z,22.01
2022-12-25T05:36:50.889Z,22.01
2022-12-25T05:37:50.871Z,22.02
2022-12-25T05:38:50.874Z,22.02
2022-12-25T05:39:50.873Z,22.02
2022-12-25T05:40:50.845Z,22.02
2022-12-25T05:41:50.840Z,22.02
2022-12-25T05:42:50.844Z,22.01
2022-12-25T05:43:50.827Z,22.02
2022-12-25T05:44:50.827Z,22.02
2022-12-25T05:45:50.809Z,22.01
2022-12-25T05:46:50.934Z,22.02
2022-12-25T05:47:50.801Z,22.02
2022-12-25T05:48:50.779Z,22.02
2022-12-25T05:49:50.784Z,22.03
2022-12-25T05:50:50.752Z,22.02
2022-12-25T05:51:50.749Z,22.02
2022-12-25T05:52:50.743Z,22.02
2022-12-25T05:53:50.733Z,22.02
2022-12-25T05:54:50.730Z,22.02
2022-12-25T05:55:50.761Z,22.03
2022-12-25T05:56:50.700Z,22.02
2022-12-25T05:57:50.689Z,22.02
2022-12-25T05:58:50.679Z,22.02
2022-12-25T05:59:50.667Z,22.03
2022-12-25T06:00:50.654Z,22.03
2022-12-25T06:01:50.727Z,22.03
2022-12-25T06:02:50.766Z,22.03
2022-12-25T06:03:50.709Z,22.03
2022-12-25T06:04:50.625Z,22.03
2022-12-25T06:05:50.615Z,22.03
2022-12-25T06:06:50.603Z,22.02
2022-12-25T06:07:50.607Z,22.03
2022-12-25T06:08:50.586Z,22.03
2022-12-25T06:09:50.570Z,22.03
2022-12-25T06:10:50.581Z,22.03
2022-12-25T06:11:50.560Z,22.03
2022-12-25T06:12:50.580Z,22.03
2022-12-25T06:13:50.525Z,22.04
2022-12-25T06:14:50.524Z,22.03
2022-12-25T06:15:50.559Z,22.03
2022-12-25T06:16:50.560Z,22.03
2022-12-25T06:17:50.507Z,22.03
2022-12-25T06:18:50.476Z,22.03
2022-12-25T06:19:50.461Z,22.03
2022-12-25T06:20:50.452Z,22.03
2022-12-25T06:21:50.449Z,22.03
2022-12-25T06:22:50.456Z,22.03
2022-12-25T06:23:50.663Z,22.04
2022-12-25T06:24:50.452Z,22.03
2022-12-25T06:25:50.425Z,22.04
2022-12-25T06:26:50.420Z,22.03
2022-12-25T06:38:50.393Z,22.03
2022-12-25T06:39:50.384Z,22.03
2022-12-25T06:40:50.386Z,22.03
2022-12-25T06:41:50.369Z,22.02
2022-12-25T06:42:50.365Z,22.03
2022-12-25T06:43:50.368Z,22.02
2022-12-25T06:44:50.354Z,22.03
2022-12-25T06:45:50.403Z,22.02
2022-12-25T06:46:50.352Z,22.02
2022-12-25T06:47:50.343Z,22.02
2022-12-25T06:48:50.363Z,22.03
2022-12-25T06:49:50.326Z,22.03
2022-12-25T06:50:50.332Z,22.02
2022-12-25T06:51:50.306Z,22.03
2022-12-25T06:52:50.307Z,22.03
2022-12-25T06:53:50.314Z,22.03
2022-12-25T06:54:50.283Z,22.03
2022-12-25T06:55:50.271Z,22.03
2022-12-25T06:56:50.273Z,22.02
2022-12-25T06:57:50.271Z,22.02
2022-12-25T06:58:50.270Z,22.03
2022-12-25T06:59:55.084Z,22.02
2022-12-25T07:00:51.313Z,22.02
2022-12-25T07:01:50.453Z,22.03
2022-12-25T07:02:50.435Z,22.03
2022-12-25T07:03:50.245Z,22.03
2022-12-25T07:04:50.229Z,22.03
2022-12-25T07:05:50.219Z,22.03
2022-12-25T07:06:50.213Z,22.03
2022-12-25T07:07:50.192Z,22.03
2022-12-25T07:08:50.214Z,22.03
2022-12-25T07:09:50.186Z,22.03
2022-12-25T07:10:50.189Z,22.03
2022-12-25T07:11:50.187Z,22.03
2022-12-25T07:12:50.166Z,22.03
2022-12-25T07:13:50.157Z,22.03
2022-12-25T07:14:50.364Z,22.03
2022-12-25T07:15:50.162Z,22.04
2022-12-25T07:16:50.201Z,22.04
2022-12-25T07:17:50.175Z,22.04
2022-12-25T07:18:50.163Z,22.04
2022-12-25T07:19:50.148Z,22.04
2022-12-25T07:20:50.153Z,22.04
2022-12-25T07:21:50.171Z,22.04
2022-12-25T07:22:50.729Z,22.04
2022-12-25T07:23:50.148Z,22.05
2022-12-25T07:24:50.147Z,22.04
2022-12-25T07:25:50.141Z,22.04
2022-12-25T07:26:50.147Z,22.05
2022-12-25T07:27:50.147Z,22.04
2022-12-25T07:28:50.140Z,22.04
2022-12-25T07:29:50.134Z,22.05
2022-12-25T07:30:50.137Z,22.05
2022-12-25T07:31:50.177Z,22.05
2022-12-25T07:32:50.460Z,22.05
2022-12-25T07:33:50.119Z,22.05
2022-12-25T07:34:50.107Z,22.05
2022-12-25T07:35:50.106Z,22.05
2022-12-25T07:36:50.136Z,22.05
2022-12-25T07:37:50.108Z,22.06
2022-12-25T07:38:50.121Z,22.06
2022-12-25T07:39:50.100Z,22.05
2022-12-25T07:40:50.099Z,22.06
2022-12-25T07:41:50.100Z,22.06
2022-12-25T07:45:50.099Z,22.06
2022-12-25T11:02:47.185Z,24.47
2022-12-25T11:03:46.997Z,24.48
2022-12-25T11:04:46.927Z,24.49
2022-12-25T11:05:46.884Z,24.51
2022-12-25T11:06:46.847Z,24.52
2022-12-25T11:07:46.916Z,24.54
2022-12-25T11:08:46.793Z,24.55
2022-12-25T11:09:46.766Z,24.55
2022-12-25T11:10:46.739Z,24.56
2022-12-25T11:11:46.706Z,24.58
2022-12-25T11:12:46.678Z,24.59
2022-12-25T11:13:46.655Z,24.60
2022-12-25T11:14:46.612Z,24.62
2022-12-25T11:15:46.610Z,24.63
2022-12-25T11:16:46.577Z,24.63
2022-12-25T11:17:46.527Z,24.64
2022-12-25T11:18:46.495Z,24.66
2022-12-25T11:19:46.473Z,24.66
2022-12-25T11:20:47.263Z,24.67
2022-12-25T11:21:46.418Z,24.67
2022-12-25T11:22:46.370Z,24.67
2022-12-25T11:23:46.344Z,24.68
2022-12-25T11:24:46.321Z,24.69
2022-12-25T11:25:46.275Z,24.70
2022-12-25T11:26:46.245Z,24.70
2022-12-25T11:27:50.331Z,24.70
2022-12-25T11:28:47.178Z,24.72
2022-12-25T11:29:46.156Z,24.72
2022-12-25T11:30:46.146Z,24.74
2022-12-25T11:31:46.120Z,24.73
2022-12-25T11:32:46.048Z,24.73
2022-12-25T11:33:46.014Z,24.75
2022-12-25T11:34:45.987Z,24.76
2022-12-25T11:35:46.051Z,24.75
2022-12-25T11:36:45.918Z,24.74
2022-12-25T11:37:45.883Z,24.74
2022-12-25T11:38:45.857Z,24.75
2022-12-25T11:39:45.818Z,24.77
2022-12-25T11:40:45.787Z,24.77
2022-12-25T11:41:45.749Z,24.77
2022-12-25T11:42:45.717Z,24.78
2022-12-25T11:43:45.683Z,24.79
2022-12-25T11:44:45.636Z,24.81
2022-12-25T11:45:45.604Z,24.82
2022-12-25T11:46:45.644Z,24.81
2022-12-25T11:47:45.537Z,24.80
2022-12-25T11:48:45.504Z,24.82
2022-12-25T11:49:49.736Z,24.82
2022-12-25T11:50:45.442Z,24.84
2022-12-25T11:51:45.409Z,24.84
2022-12-25T11:52:45.371Z,24.84
2022-12-25T11:53:45.343Z,24.84
2022-12-25T11:54:45.307Z,24.83
2022-12-25T11:55:45.307Z,24.83
2022-12-25T11:56:45.235Z,24.84
2022-12-25T11:57:45.203Z,24.83
2022-12-25T11:58:45.167Z,24.83
2022-12-25T11:59:45.150Z,24.82
2022-12-25T12:00:45.098Z,24.81
2022-12-25T12:01:45.213Z,24.80
2022-12-25T12:02:45.320Z,24.78
2022-12-25T12:03:45.034Z,24.78
2022-12-25T12:04:44.974Z,24.77
2022-12-25T12:05:44.940Z,24.77
2022-12-25T12:06:44.909Z,24.76
2022-12-25T12:07:44.871Z,24.76
2022-12-25T12:08:44.828Z,24.75
2022-12-25T12:09:44.804Z,24.75
2022-12-25T12:10:44.774Z,24.75
2022-12-25T12:11:44.733Z,24.74
2022-12-25T12:12:48.917Z,24.74
2022-12-25T12:13:44.683Z,24.74
2022-12-25T12:14:44.631Z,24.73
2022-12-25T12:15:44.630Z,24.74
2022-12-25T12:16:44.643Z,24.74
2022-12-25T12:17:44.543Z,24.75
2022-12-25T12:18:50.029Z,24.76
2022-12-25T12:19:45.484Z,24.75
2022-12-25T12:20:44.450Z,24.77
2022-12-25T12:21:44.404Z,24.78
2022-12-25T12:22:44.358Z,24.79
2022-12-25T12:23:44.332Z,24.80
2022-12-25T12:24:44.312Z,24.81
2022-12-25T12:25:44.302Z,24.83
2022-12-25T12:26:44.228Z,24.85
2022-12-25T12:27:44.207Z,24.86
2022-12-25T12:28:44.169Z,24.89
2022-12-25T12:29:44.150Z,24.87
2022-12-25T12:30:44.132Z,24.89
2022-12-25T12:31:44.130Z,24.90
2022-12-25T12:32:44.171Z,24.92
2022-12-25T12:33:44.027Z,24.93
2022-12-25T12:34:44.015Z,24.94
2022-12-25T12:35:43.964Z,24.94
2022-12-25T12:36:43.917Z,24.95
2022-12-25T12:37:43.880Z,24.95
2022-12-25T12:38:43.864Z,24.97
2022-12-25T12:39:43.804Z,24.97
2022-12-25T12:40:43.772Z,24.98
2022-12-25T12:41:43.742Z,24.98
2022-12-25T12:42:43.835Z,24.98
2022-12-25T12:43:43.666Z,24.99
2022-12-25T12:44:43.626Z,25.00
2022-12-25T12:45:43.667Z,25.00
2022-12-25T12:46:43.735Z,25.00
2022-12-25T12:47:43.542Z,25.00
2022-12-25T12:48:43.488Z,25.00
2022-12-25T12:49:43.468Z,25.00
2022-12-25T12:50:43.442Z,25.00
2022-12-25T12:51:43.424Z,25.01
2022-12-25T12:52:43.376Z,25.01
2022-12-25T12:53:43.327Z,25.02
2022-12-25T12:54:43.293Z,25.01
2022-12-25T12:55:43.266Z,24.99
2022-12-25T12:56:43.224Z,25.00
2022-12-25T12:57:43.170Z,25.00
2022-12-25T12:58:43.138Z,25.01
2022-12-25T12:59:43.093Z,25.01
2022-12-25T13:00:43.123Z,25.01
2022-12-25T13:01:43.157Z,25.02
2022-12-25T13:02:43.160Z,25.01
2022-12-25T13:03:42.952Z,25.00
2022-12-25T13:04:42.907Z,25.01
2022-12-25T13:05:42.865Z,25.01
2022-12-25T13:06:42.827Z,25.01
2022-12-25T13:07:42.785Z,25.01
2022-12-25T13:08:42.751Z,25.00
2022-12-25T13:09:42.713Z,25.01
2022-12-25T13:10:42.665Z,25.00
2022-12-25T13:11:42.641Z,25.00
2022-12-25T13:12:42.587Z,25.00
2022-12-25T13:13:42.553Z,25.00
2022-12-25T13:14:42.521Z,25.00
2022-12-25T13:15:42.475Z,24.99
2022-12-25T13:16:42.490Z,24.99
2022-12-25T13:17:42.399Z,24.99
2022-12-25T13:18:42.390Z,24.99
2022-12-25T13:19:42.331Z,24.98
2022-12-25T13:20:42.318Z,24.97
2022-12-25T13:21:42.255Z,24.98
2022-12-25T13:22:45.187Z,24.97
2022-12-25T13:24:42.143Z,24.96
2022-12-25T13:29:41.964Z,24.95
2022-12-25T13:49:41.291Z,24.62
2022-12-25T13:50:41.255Z,24.60
2022-12-25T13:51:41.246Z,24.59
2022-12-25T13:52:41.192Z,24.56
2022-12-25T13:53:41.165Z,24.55
2022-12-25T13:54:41.131Z,24.54
2022-12-25T13:55:41.099Z,24.51
2022-12-25T13:56:41.081Z,24.51
2022-12-25T13:57:41.058Z,24.49
2022-12-25T13:58:41.062Z,24.47
2022-12-25T13:59:41.003Z,24.46
2022-12-25T14:00:40.971Z,24.44
2022-12-25T14:01:41.079Z,24.43
2022-12-25T14:02:40.940Z,24.40
2022-12-25T14:03:40.936Z,24.39
2022-12-25T14:04:40.870Z,24.38
2022-12-25T14:05:43.308Z,24.37
2022-12-25T14:06:40.807Z,24.36
2022-12-25T14:07:40.776Z,24.34
2022-12-25T14:08:40.736Z,24.34
2022-12-25T14:09:40.717Z,24.32
2022-12-25T14:10:40.678Z,24.31
2022-12-25T14:11:40.649Z,24.30
2022-12-25T14:12:40.637Z,24.29
2022-12-25T14:13:40.603Z,24.27
2022-12-25T14:14:40.586Z,24.27
2022-12-25T14:15:40.545Z,24.26
2022-12-25T14:16:40.588Z,24.25
2022-12-25T14:17:40.486Z,24.25
2022-12-25T14:18:40.459Z,24.23
2022-12-25T14:19:40.438Z,24.23
2022-12-25T14:20:40.406Z,24.22
2022-12-25T14:21:40.387Z,24.22
2022-12-25T14:22:40.353Z,24.21
2022-12-25T14:23:40.307Z,24.21
2022-12-25T14:24:40.292Z,24.20
2022-12-25T14:25:40.290Z,24.19
2022-12-25T14:26:40.249Z,24.18
2022-12-25T14:27:40.224Z,24.18
2022-12-25T14:28:40.197Z,24.17
2022-12-25T14:29:40.160Z,24.17
2022-12-25T14:30:40.202Z,24.16
2022-12-25T14:31:40.112Z,24.17
